sensor_id;sensor_type;location;lat;lon;timestamp;P1;durP1;ratioP1;P2;durP2;ratioP2
4307;SDS011;2167;53.448;9.984;2022-12-07T00:01:10;8.17;;;5.83;;
4307;SDS011;2167;53.448;9.984;2022-12-07T00:03:37;14.75;;;7.57;;
4307;SDS011;2167;53.448;9.984;2022-12-07T00:06:04;10.20;;;6.77;;
4307;SDS011;2167;53.448;9.984;2022-12-07T00:08:32;12.97;;;6.93;;
4307;SDS011;2167;53.448;9.984;2022-12-07T00:11:03;17.57;;;8.43;;
4307;SDS011;2167;53.448;9.984;2022-12-07T00:13:34;16.20;;;8.10;;
4307;SDS011;2167;53.448;9.984;2022-12-07T00:16:05;13.30;;;6.70;;
4307;SDS011;2167;53.448;9.984;2022-12-07T00:18:31;8.57;;;5.87;;
4307;SDS011;2167;53.448;9.984;2022-12-07T00:21:04;8.60;;;6.17;;
4307;SDS011;2167;53.448;9.984;2022-12-07T00:23:50;11.60;;;6.03;;
4307;SDS011;2167;53.448;9.984;2022-12-07T00:26:19;14.07;;;7.07;;
4307;SDS011;2167;53.448;9.984;2022-12-07T00:28:53;12.10;;;6.70;;
4307;SDS011;2167;53.448;9.984;2022-12-07T00:31:20;10.10;;;7.10;;
4307;SDS011;2167;53.448;9.984;2022-12-07T00:33:47;9.10;;;5.67;;
4307;SDS011;2167;53.448;9.984;2022-12-07T00:36:16;10.93;;;6.10;;
4307;SDS011;2167;53.448;9.984;2022-12-07T00:38:43;9.83;;;5.80;;
4307;SDS011;2167;53.448;9.984;2022-12-07T00:41:28;7.87;;;6.13;;
4307;SDS011;2167;53.448;9.984;2022-12-07T00:43:54;6.70;;;4.93;;
4307;SDS011;2167;53.448;9.984;2022-12-07T00:46:20;12.60;;;6.90;;
4307;SDS011;2167;53.448;9.984;2022-12-07T00:48:47;9.90;;;4.40;;
4307;SDS011;2167;53.448;9.984;2022-12-07T00:51:14;14.43;;;5.50;;
4307;SDS011;2167;53.448;9.984;2022-12-07T00:53:41;10.40;;;5.53;;
4307;SDS011;2167;53.448;9.984;2022-12-07T00:56:12;13.50;;;5.60;;
4307;SDS011;2167;53.448;9.984;2022-12-07T00:58:39;11.20;;;5.40;;
4307;SDS011;2167;53.448;9.984;2022-12-07T01:01:06;10.37;;;4.70;;
4307;SDS011;2167;53.448;9.984;2022-12-07T01:03:33;8.10;;;5.03;;
4307;SDS011;2167;53.448;9.984;2022-12-07T01:05:59;11.20;;;6.20;;
4307;SDS011;2167;53.448;9.984;2022-12-07T01:08:25;14.47;;;5.13;;
4307;SDS011;2167;53.448;9.984;2022-12-07T01:11:02;11.50;;;5.77;;
4307;SDS011;2167;53.448;9.984;2022-12-07T01:13:32;7.60;;;4.40;;
4307;SDS011;2167;53.448;9.984;2022-12-07T01:16:00;10.57;;;5.23;;
4307;SDS011;2167;53.448;9.984;2022-12-07T01:18:28;15.23;;;7.10;;
4307;SDS011;2167;53.448;9.984;2022-12-07T01:21:01;8.50;;;5.73;;
4307;SDS011;2167;53.448;9.984;2022-12-07T01:23:29;7.70;;;4.40;;
4307;SDS011;2167;53.448;9.984;2022-12-07T01:25:59;14.20;;;4.70;;
4307;SDS011;2167;53.448;9.984;2022-12-07T01:28:27;8.67;;;3.93;;
4307;SDS011;2167;53.448;9.984;2022-12-07T01:33:21;21.03;;;5.50;;
4307;SDS011;2167;53.448;9.984;2022-12-07T01:35:47;13.43;;;5.93;;
4307;SDS011;2167;53.448;9.984;2022-12-07T01:38:12;8.13;;;5.50;;
4307;SDS011;2167;53.448;9.984;2022-12-07T01:40:38;13.60;;;5.63;;
4307;SDS011;2167;53.448;9.984;2022-12-07T01:43:07;12.90;;;6.60;;
4307;SDS011;2167;53.448;9.984;2022-12-07T01:45:42;9.80;;;4.60;;
4307;SDS011;2167;53.448;9.984;2022-12-07T01:48:09;9.80;;;4.40;;
4307;SDS011;2167;53.448;9.984;2022-12-07T01:50:38;9.30;;;5.00;;
4307;SDS011;2167;53.448;9.984;2022-12-07T01:53:06;11.27;;;5.10;;
4307;SDS011;2167;53.448;9.984;2022-12-07T01:55:34;4.83;;;3.20;;
4307;SDS011;2167;53.448;9.984;2022-12-07T01:58:03;12.80;;;5.13;;
4307;SDS011;2167;53.448;9.984;2022-12-07T02:00:29;8.73;;;4.67;;
4307;SDS011;2167;53.448;9.984;2022-12-07T02:02:55;4.60;;;4.17;;
4307;SDS011;2167;53.448;9.984;2022-12-07T02:05:26;5.93;;;3.40;;
4307;SDS011;2167;53.448;9.984;2022-12-07T02:07:53;7.97;;;5.13;;
4307;SDS011;2167;53.448;9.984;2022-12-07T02:10:21;14.40;;;4.70;;
4307;SDS011;2167;53.448;9.984;2022-12-07T02:12:50;12.90;;;4.63;;
4307;SDS011;2167;53.448;9.984;2022-12-07T02:15:20;5.07;;;3.70;;
4307;SDS011;2167;53.448;9.984;2022-12-07T02:17:52;14.30;;;4.43;;
4307;SDS011;2167;53.448;9.984;2022-12-07T02:20:33;7.00;;;4.50;;
4307;SDS011;2167;53.448;9.984;2022-12-07T02:31:50;7.10;;;4.53;;
4307;SDS011;2167;53.448;9.984;2022-12-07T02:34:34;6.43;;;3.53;;
4307;SDS011;2167;53.448;9.984;2022-12-07T02:37:06;7.43;;;2.73;;
4307;SDS011;2167;53.448;9.984;2022-12-07T02:39:49;6.07;;;3.43;;
4307;SDS011;2167;53.448;9.984;2022-12-07T02:42:38;3.17;;;2.87;;
4307;SDS011;2167;53.448;9.984;2022-12-07T02:45:09;11.77;;;4.65;;
4307;SDS011;2167;53.448;9.984;2022-12-07T02:47:38;7.07;;;3.47;;
4307;SDS011;2167;53.448;9.984;2022-12-07T02:50:06;5.47;;;3.00;;
4307;SDS011;2167;53.448;9.984;2022-12-07T02:52:32;4.60;;;3.20;;
4307;SDS011;2167;53.448;9.984;2022-12-07T02:54:57;8.27;;;3.07;;
4307;SDS011;2167;53.448;9.984;2022-12-07T02:57:31;5.20;;;1.97;;
4307;SDS011;2167;53.448;9.984;2022-12-07T03:00:20;6.07;;;2.88;;
4307;SDS011;2167;53.448;9.984;2022-12-07T03:03:19;9.17;;;2.17;;
4307;SDS011;2167;53.448;9.984;2022-12-07T03:08:39;9.33;;;1.90;;
4307;SDS011;2167;53.448;9.984;2022-12-07T03:11:16;4.80;;;2.70;;
4307;SDS011;2167;53.448;9.984;2022-12-07T03:13:48;2.87;;;1.70;;
4307;SDS011;2167;53.448;9.984;2022-12-07T03:16:26;4.77;;;1.57;;
4307;SDS011;2167;53.448;9.984;2022-12-07T03:18:57;1.87;;;1.43;;
4307;SDS011;2167;53.448;9.984;2022-12-07T03:21:25;6.37;;;1.93;;
4307;SDS011;2167;53.448;9.984;2022-12-07T03:23:57;2.23;;;2.03;;
4307;SDS011;2167;53.448;9.984;2022-12-07T03:26:28;18.47;;;1.67;;
4307;SDS011;2167;53.448;9.984;2022-12-07T03:29:07;9.47;;;2.50;;
4307;SDS011;2167;53.448;9.984;2022-12-07T03:31:40;4.40;;;2.20;;
4307;SDS011;2167;53.448;9.984;2022-12-07T03:34:32;3.53;;;1.50;;
4307;SDS011;2167;53.448;9.984;2022-12-07T03:37:06;2.17;;;1.97;;
4307;SDS011;2167;53.448;9.984;2022-12-07T03:39:41;2.00;;;1.13;;
4307;SDS011;2167;53.448;9.984;2022-12-07T03:42:16;6.27;;;1.40;;
4307;SDS011;2167;53.448;9.984;2022-12-07T03:44:41;3.40;;;0.87;;
4307;SDS011;2167;53.448;9.984;2022-12-07T03:47:16;2.83;;;1.50;;
4307;SDS011;2167;53.448;9.984;2022-12-07T03:49:59;6.30;;;1.57;;
4307;SDS011;2167;53.448;9.984;2022-12-07T03:52:39;1.93;;;1.30;;
4307;SDS011;2167;53.448;9.984;2022-12-07T03:55:18;3.97;;;2.17;;
4307;SDS011;2167;53.448;9.984;2022-12-07T03:57:58;6.90;;;1.70;;
4307;SDS011;2167;53.448;9.984;2022-12-07T04:00:28;8.97;;;1.00;;
4307;SDS011;2167;53.448;9.984;2022-12-07T04:02:54;1.30;;;1.20;;
4307;SDS011;2167;53.448;9.984;2022-12-07T04:05:21;2.00;;;1.00;;
4307;SDS011;2167;53.448;9.984;2022-12-07T04:07:46;1.53;;;0.87;;
4307;SDS011;2167;53.448;9.984;2022-12-07T04:10:12;5.87;;;1.40;;
4307;SDS011;2167;53.448;9.984;2022-12-07T04:12:38;1.30;;;1.03;;
4307;SDS011;2167;53.448;9.984;2022-12-07T04:15:04;4.93;;;1.47;;
4307;SDS011;2167;53.448;9.984;2022-12-07T04:17:31;1.43;;;1.00;;
4307;SDS011;2167;53.448;9.984;2022-12-07T04:19:56;1.03;;;0.90;;
4307;SDS011;2167;53.448;9.984;2022-12-07T04:22:22;1.73;;;0.90;;
4307;SDS011;2167;53.448;9.984;2022-12-07T04:24:47;1.70;;;1.10;;
4307;SDS011;2167;53.448;9.984;2022-12-07T04:27:13;1.97;;;0.80;;
4307;SDS011;2167;53.448;9.984;2022-12-07T04:29:38;0.87;;;0.87;;
4307;SDS011;2167;53.448;9.984;2022-12-07T04:32:04;1.80;;;1.10;;
4307;SDS011;2167;53.448;9.984;2022-12-07T04:34:30;1.40;;;1.10;;
4307;SDS011;2167;53.448;9.984;2022-12-07T04:36:55;2.50;;;1.00;;
4307;SDS011;2167;53.448;9.984;2022-12-07T04:39:22;2.27;;;1.27;;
4307;SDS011;2167;53.448;9.984;2022-12-07T04:41:49;0.80;;;0.80;;
4307;SDS011;2167;53.448;9.984;2022-12-07T04:44:15;1.27;;;0.80;;
4307;SDS011;2167;53.448;9.984;2022-12-07T04:46:42;2.10;;;0.80;;
4307;SDS011;2167;53.448;9.984;2022-12-07T04:49:08;2.50;;;1.90;;
4307;SDS011;2167;53.448;9.984;2022-12-07T04:51:33;4.00;;;1.30;;
4307;SDS011;2167;53.448;9.984;2022-12-07T04:53:59;2.13;;;1.23;;
4307;SDS011;2167;53.448;9.984;2022-12-07T04:56:25;3.10;;;1.77;;
4307;SDS011;2167;53.448;9.984;2022-12-07T04:58:51;1.00;;;1.00;;
4307;SDS011;2167;53.448;9.984;2022-12-07T05:01:18;1.90;;;0.83;;
4307;SDS011;2167;53.448;9.984;2022-12-07T05:03:45;2.03;;;0.90;;
4307;SDS011;2167;53.448;9.984;2022-12-07T05:06:10;1.60;;;1.50;;
4307;SDS011;2167;53.448;9.984;2022-12-07T05:08:36;3.07;;;1.47;;
4307;SDS011;2167;53.448;9.984;2022-12-07T05:11:02;4.47;;;1.37;;
4307;SDS011;2167;53.448;9.984;2022-12-07T05:13:29;1.47;;;0.77;;
4307;SDS011;2167;53.448;9.984;2022-12-07T05:15:55;2.23;;;1.20;;
4307;SDS011;2167;53.448;9.984;2022-12-07T05:18:20;2.53;;;1.00;;
4307;SDS011;2167;53.448;9.984;2022-12-07T05:20:46;1.40;;;1.30;;
4307;SDS011;2167;53.448;9.984;2022-12-07T05:23:12;2.65;;;1.60;;
4307;SDS011;2167;53.448;9.984;2022-12-07T05:25:38;1.37;;;1.13;;
4307;SDS011;2167;53.448;9.984;2022-12-07T05:28:03;1.10;;;1.10;;
4307;SDS011;2167;53.448;9.984;2022-12-07T05:30:29;1.90;;;0.87;;
4307;SDS011;2167;53.448;9.984;2022-12-07T05:32:55;2.73;;;1.00;;
4307;SDS011;2167;53.448;9.984;2022-12-07T05:35:21;4.23;;;0.90;;
4307;SDS011;2167;53.448;9.984;2022-12-07T05:37:46;3.07;;;1.07;;
4307;SDS011;2167;53.448;9.984;2022-12-07T05:40:12;0.70;;;0.70;;
4307;SDS011;2167;53.448;9.984;2022-12-07T05:42:38;3.97;;;1.43;;
4307;SDS011;2167;53.448;9.984;2022-12-07T05:45:04;1.57;;;1.20;;
4307;SDS011;2167;53.448;9.984;2022-12-07T05:47:30;5.87;;;0.80;;
4307;SDS011;2167;53.448;9.984;2022-12-07T05:49:56;3.33;;;2.03;;
4307;SDS011;2167;53.448;9.984;2022-12-07T05:52:21;4.63;;;1.10;;
4307;SDS011;2167;53.448;9.984;2022-12-07T05:54:47;2.00;;;1.60;;
4307;SDS011;2167;53.448;9.984;2022-12-07T05:57:13;0.60;;;0.60;;
4307;SDS011;2167;53.448;9.984;2022-12-07T05:59:38;3.03;;;0.97;;
4307;SDS011;2167;53.448;9.984;2022-12-07T06:02:05;1.17;;;1.00;;
4307;SDS011;2167;53.448;9.984;2022-12-07T06:04:34;1.00;;;0.90;;
4307;SDS011;2167;53.448;9.984;2022-12-07T06:07:01;2.00;;;1.43;;
4307;SDS011;2167;53.448;9.984;2022-12-07T06:09:27;0.83;;;0.80;;
4307;SDS011;2167;53.448;9.984;2022-12-07T06:11:54;1.00;;;0.77;;
4307;SDS011;2167;53.448;9.984;2022-12-07T06:14:39;2.20;;;1.40;;
4307;SDS011;2167;53.448;9.984;2022-12-07T06:17:05;1.43;;;1.43;;
4307;SDS011;2167;53.448;9.984;2022-12-07T06:19:31;1.80;;;1.43;;
4307;SDS011;2167;53.448;9.984;2022-12-07T06:21:57;2.53;;;1.13;;
4307;SDS011;2167;53.448;9.984;2022-12-07T06:24:22;1.20;;;1.03;;
4307;SDS011;2167;53.448;9.984;2022-12-07T06:26:49;2.30;;;1.65;;
4307;SDS011;2167;53.448;9.984;2022-12-07T06:29:14;2.83;;;0.93;;
4307;SDS011;2167;53.448;9.984;2022-12-07T06:31:41;1.40;;;1.30;;
4307;SDS011;2167;53.448;9.984;2022-12-07T06:34:08;2.20;;;1.43;;
4307;SDS011;2167;53.448;9.984;2022-12-07T06:36:36;6.03;;;1.53;;
4307;SDS011;2167;53.448;9.984;2022-12-07T06:39:04;3.50;;;1.03;;
4307;SDS011;2167;53.448;9.984;2022-12-07T06:41:31;1.98;;;0.85;;
4307;SDS011;2167;53.448;9.984;2022-12-07T06:43:56;2.50;;;1.23;;
4307;SDS011;2167;53.448;9.984;2022-12-07T06:46:22;5.60;;;1.10;;
4307;SDS011;2167;53.448;9.984;2022-12-07T06:48:48;1.90;;;1.00;;
4307;SDS011;2167;53.448;9.984;2022-12-07T06:51:14;10.97;;;1.17;;
4307;SDS011;2167;53.448;9.984;2022-12-07T06:53:40;1.13;;;1.13;;
4307;SDS011;2167;53.448;9.984;2022-12-07T06:56:05;3.40;;;1.03;;
4307;SDS011;2167;53.448;9.984;2022-12-07T06:58:31;7.50;;;0.95;;
4307;SDS011;2167;53.448;9.984;2022-12-07T07:00:57;2.93;;;0.90;;
4307;SDS011;2167;53.448;9.984;2022-12-07T07:03:22;2.10;;;0.60;;
4307;SDS011;2167;53.448;9.984;2022-12-07T07:05:48;0.87;;;0.67;;
4307;SDS011;2167;53.448;9.984;2022-12-07T07:08:14;2.10;;;0.93;;
4307;SDS011;2167;53.448;9.984;2022-12-07T07:10:40;0.90;;;0.77;;
4307;SDS011;2167;53.448;9.984;2022-12-07T07:13:06;0.60;;;0.60;;
4307;SDS011;2167;53.448;9.984;2022-12-07T07:15:31;0.80;;;0.63;;
4307;SDS011;2167;53.448;9.984;2022-12-07T07:17:57;0.70;;;0.70;;
4307;SDS011;2167;53.448;9.984;2022-12-07T07:20:23;0.50;;;0.37;;
4307;SDS011;2167;53.448;9.984;2022-12-07T07:22:51;0.93;;;0.50;;
4307;SDS011;2167;53.448;9.984;2022-12-07T07:25:19;0.47;;;0.40;;
4307;SDS011;2167;53.448;9.984;2022-12-07T07:27:44;0.70;;;0.53;;
4307;SDS011;2167;53.448;9.984;2022-12-07T07:30:10;3.90;;;2.77;;
4307;SDS011;2167;53.448;9.984;2022-12-07T07:32:36;1.23;;;0.63;;
4307;SDS011;2167;53.448;9.984;2022-12-07T07:35:01;4.33;;;0.90;;
4307;SDS011;2167;53.448;9.984;2022-12-07T07:37:27;1.90;;;0.83;;
4307;SDS011;2167;53.448;9.984;2022-12-07T07:39:53;0.70;;;0.60;;
4307;SDS011;2167;53.448;9.984;2022-12-07T07:42:18;4.10;;;0.70;;
4307;SDS011;2167;53.448;9.984;2022-12-07T07:44:44;1.10;;;0.90;;
4307;SDS011;2167;53.448;9.984;2022-12-07T07:47:10;2.20;;;1.13;;
4307;SDS011;2167;53.448;9.984;2022-12-07T07:49:35;0.60;;;0.50;;
4307;SDS011;2167;53.448;9.984;2022-12-07T07:52:01;1.33;;;0.70;;
4307;SDS011;2167;53.448;9.984;2022-12-07T07:54:27;0.40;;;0.40;;
4307;SDS011;2167;53.448;9.984;2022-12-07T07:56:52;0.83;;;0.83;;
4307;SDS011;2167;53.448;9.984;2022-12-07T07:59:18;1.00;;;0.90;;
4307;SDS011;2167;53.448;9.984;2022-12-07T08:01:44;0.50;;;0.50;;
4307;SDS011;2167;53.448;9.984;2022-12-07T08:04:10;1.20;;;0.90;;
4307;SDS011;2167;53.448;9.984;2022-12-07T08:06:35;1.03;;;0.60;;
4307;SDS011;2167;53.448;9.984;2022-12-07T08:09:02;0.90;;;0.90;;
4307;SDS011;2167;53.448;9.984;2022-12-07T08:11:28;1.70;;;0.73;;
4307;SDS011;2167;53.448;9.984;2022-12-07T08:13:54;2.10;;;0.77;;
4307;SDS011;2167;53.448;9.984;2022-12-07T08:16:19;5.77;;;1.10;;
4307;SDS011;2167;53.448;9.984;2022-12-07T08:18:45;2.80;;;1.67;;
4307;SDS011;2167;53.448;9.984;2022-12-07T08:21:12;4.03;;;0.80;;
4307;SDS011;2167;53.448;9.984;2022-12-07T08:23:39;0.50;;;0.50;;
4307;SDS011;2167;53.448;9.984;2022-12-07T08:26:09;3.53;;;0.70;;
4307;SDS011;2167;53.448;9.984;2022-12-07T08:28:37;1.52;;;1.00;;
4307;SDS011;2167;53.448;9.984;2022-12-07T08:31:03;0.63;;;0.63;;
4307;SDS011;2167;53.448;9.984;2022-12-07T08:33:34;7.90;;;1.47;;
4307;SDS011;2167;53.448;9.984;2022-12-07T08:36:00;5.40;;;0.97;;
4307;SDS011;2167;53.448;9.984;2022-12-07T08:38:27;12.13;;;0.90;;
4307;SDS011;2167;53.448;9.984;2022-12-07T08:40:53;0.70;;;0.70;;
4307;SDS011;2167;53.448;9.984;2022-12-07T08:43:20;4.65;;;1.30;;
4307;SDS011;2167;53.448;9.984;2022-12-07T08:45:46;1.23;;;0.80;;
4307;SDS011;2167;53.448;9.984;2022-12-07T08:48:15;1.23;;;0.77;;
4307;SDS011;2167;53.448;9.984;2022-12-07T08:50:43;0.80;;;0.63;;
4307;SDS011;2167;53.448;9.984;2022-12-07T08:53:10;3.13;;;0.90;;
4307;SDS011;2167;53.448;9.984;2022-12-07T08:55:35;2.13;;;1.30;;
4307;SDS011;2167;53.448;9.984;2022-12-07T08:58:03;1.67;;;0.83;;
4307;SDS011;2167;53.448;9.984;2022-12-07T09:00:29;1.07;;;0.70;;
4307;SDS011;2167;53.448;9.984;2022-12-07T09:02:55;3.27;;;1.00;;
4307;SDS011;2167;53.448;9.984;2022-12-07T09:05:20;2.10;;;0.77;;
4307;SDS011;2167;53.448;9.984;2022-12-07T09:07:48;2.63;;;0.77;;
4307;SDS011;2167;53.448;9.984;2022-12-07T09:10:18;1.13;;;1.03;;
4307;SDS011;2167;53.448;9.984;2022-12-07T09:12:43;0.50;;;0.50;;
4307;SDS011;2167;53.448;9.984;2022-12-07T09:15:09;3.13;;;1.27;;
4307;SDS011;2167;53.448;9.984;2022-12-07T09:17:35;2.10;;;0.73;;
4307;SDS011;2167;53.448;9.984;2022-12-07T09:20:01;3.10;;;0.83;;
4307;SDS011;2167;53.448;9.984;2022-12-07T09:22:28;1.37;;;0.90;;
4307;SDS011;2167;53.448;9.984;2022-12-07T09:24:55;1.20;;;0.90;;
4307;SDS011;2167;53.448;9.984;2022-12-07T09:27:21;3.23;;;0.60;;
4307;SDS011;2167;53.448;9.984;2022-12-07T09:29:47;1.03;;;0.93;;
4307;SDS011;2167;53.448;9.984;2022-12-07T09:32:12;5.07;;;0.60;;
4307;SDS011;2167;53.448;9.984;2022-12-07T09:34:38;3.03;;;1.07;;
4307;SDS011;2167;53.448;9.984;2022-12-07T09:37:04;1.13;;;0.80;;
4307;SDS011;2167;53.448;9.984;2022-12-07T09:39:29;14.23;;;1.73;;
4307;SDS011;2167;53.448;9.984;2022-12-07T09:41:56;2.17;;;0.90;;
4307;SDS011;2167;53.448;9.984;2022-12-07T09:44:24;5.30;;;1.48;;
4307;SDS011;2167;53.448;9.984;2022-12-07T09:46:51;1.90;;;0.97;;
4307;SDS011;2167;53.448;9.984;2022-12-07T09:49:19;3.13;;;1.03;;
4307;SDS011;2167;53.448;9.984;2022-12-07T09:51:47;1.00;;;0.90;;
4307;SDS011;2167;53.448;9.984;2022-12-07T09:54:23;5.93;;;1.30;;
4307;SDS011;2167;53.448;9.984;2022-12-07T09:56:49;0.93;;;0.60;;
4307;SDS011;2167;53.448;9.984;2022-12-07T09:59:17;0.30;;;0.30;;
4307;SDS011;2167;53.448;9.984;2022-12-07T10:01:47;1.70;;;1.13;;
4307;SDS011;2167;53.448;9.984;2022-12-07T10:04:24;1.63;;;0.70;;
4307;SDS011;2167;53.448;9.984;2022-12-07T10:06:50;1.30;;;0.70;;
4307;SDS011;2167;53.448;9.984;2022-12-07T10:09:17;0.50;;;0.50;;
4307;SDS011;2167;53.448;9.984;2022-12-07T10:14:29;13.27;;;1.07;;
4307;SDS011;2167;53.448;9.984;2022-12-07T10:16:56;0.50;;;0.50;;
4307;SDS011;2167;53.448;9.984;2022-12-07T10:19:26;1.47;;;0.57;;
4307;SDS011;2167;53.448;9.984;2022-12-07T10:22:01;1.70;;;0.50;;
4307;SDS011;2167;53.448;9.984;2022-12-07T10:24:27;0.40;;;0.40;;
4307;SDS011;2167;53.448;9.984;2022-12-07T10:26:53;2.40;;;0.40;;
4307;SDS011;2167;53.448;9.984;2022-12-07T10:29:20;0.93;;;0.93;;
4307;SDS011;2167;53.448;9.984;2022-12-07T10:32:21;0.77;;;0.20;;
4307;SDS011;2167;53.448;9.984;2022-12-07T10:37:48;0.70;;;0.43;;
4307;SDS011;2167;53.448;9.984;2022-12-07T10:43:17;1.00;;;0.70;;
4307;SDS011;2167;53.448;9.984;2022-12-07T10:48:20;0.87;;;0.40;;
4307;SDS011;2167;53.448;9.984;2022-12-07T10:54:03;10.00;;;0.60;;
4307;SDS011;2167;53.448;9.984;2022-12-07T11:05:06;0.40;;;0.40;;
4307;SDS011;2167;53.448;9.984;2022-12-07T11:10:41;1.90;;;0.97;;
4307;SDS011;2167;53.448;9.984;2022-12-07T11:13:26;2.23;;;0.57;;
4307;SDS011;2167;53.448;9.984;2022-12-07T11:17:01;3.15;;;1.00;;
4307;SDS011;2167;53.448;9.984;2022-12-07T11:18:59;0.80;;;0.73;;
4307;SDS011;2167;53.448;9.984;2022-12-07T11:21:56;1.53;;;0.60;;
4307;SDS011;2167;53.448;9.984;2022-12-07T11:24:35;6.80;;;1.17;;
4307;SDS011;2167;53.448;9.984;2022-12-07T11:27:19;5.93;;;1.00;;
4307;SDS011;2167;53.448;9.984;2022-12-07T11:32:45;1.65;;;0.60;;
4307;SDS011;2167;53.448;9.984;2022-12-07T11:38:01;0.63;;;0.43;;
4307;SDS011;2167;53.448;9.984;2022-12-07T11:40:35;0.60;;;0.40;;
4307;SDS011;2167;53.448;9.984;2022-12-07T11:43:21;0.53;;;0.40;;
4307;SDS011;2167;53.448;9.984;2022-12-07T11:46:00;1.77;;;1.08;;
4307;SDS011;2167;53.448;9.984;2022-12-07T11:48:40;1.13;;;0.40;;
4307;SDS011;2167;53.448;9.984;2022-12-07T11:51:14;1.90;;;0.60;;
4307;SDS011;2167;53.448;9.984;2022-12-07T11:53:46;0.40;;;0.40;;
4307;SDS011;2167;53.448;9.984;2022-12-07T11:56:20;0.80;;;0.80;;
4307;SDS011;2167;53.448;9.984;2022-12-07T11:58:49;1.03;;;0.50;;
4307;SDS011;2167;53.448;9.984;2022-12-07T12:01:29;0.90;;;0.90;;
4307;SDS011;2167;53.448;9.984;2022-12-07T12:06:33;10.33;;;0.70;;
4307;SDS011;2167;53.448;9.984;2022-12-07T12:09:04;3.10;;;0.63;;
4307;SDS011;2167;53.448;9.984;2022-12-07T12:22:39;8.40;;;0.97;;
4307;SDS011;2167;53.448;9.984;2022-12-07T12:25:17;1.80;;;0.67;;
4307;SDS011;2167;53.448;9.984;2022-12-07T12:27:47;7.10;;;1.27;;
4307;SDS011;2167;53.448;9.984;2022-12-07T12:33:02;3.20;;;0.50;;
4307;SDS011;2167;53.448;9.984;2022-12-07T12:35:32;0.43;;;0.43;;
4307;SDS011;2167;53.448;9.984;2022-12-07T12:40:54;2.87;;;0.70;;
4307;SDS011;2167;53.448;9.984;2022-12-07T12:43:39;10.53;;;0.70;;
4307;SDS011;2167;53.448;9.984;2022-12-07T12:51:45;7.07;;;0.50;;
4307;SDS011;2167;53.448;9.984;2022-12-07T12:54:25;3.23;;;1.30;;
4307;SDS011;2167;53.448;9.984;2022-12-07T12:56:56;0.43;;;0.43;;
4307;SDS011;2167;53.448;9.984;2022-12-07T12:59:34;2.53;;;0.97;;
4307;SDS011;2167;53.448;9.984;2022-12-07T13:02:24;1.10;;;0.60;;
4307;SDS011;2167;53.448;9.984;2022-12-07T13:15:40;5.60;;;0.80;;
4307;SDS011;2167;53.448;9.984;2022-12-07T13:20:51;4.43;;;1.03;;
4307;SDS011;2167;53.448;9.984;2022-12-07T13:23:20;1.63;;;0.80;;
4307;SDS011;2167;53.448;9.984;2022-12-07T13:25:51;2.53;;;0.70;;
4307;SDS011;2167;53.448;9.984;2022-12-07T13:28:36;2.00;;;0.77;;
4307;SDS011;2167;53.448;9.984;2022-12-07T13:33:55;3.40;;;0.77;;
4307;SDS011;2167;53.448;9.984;2022-12-07T13:36:25;3.50;;;1.00;;
4307;SDS011;2167;53.448;9.984;2022-12-07T13:38:56;2.03;;;0.70;;
4307;SDS011;2167;53.448;9.984;2022-12-07T13:41:24;0.70;;;0.70;;
4307;SDS011;2167;53.448;9.984;2022-12-07T13:44:11;1.97;;;0.73;;
4307;SDS011;2167;53.448;9.984;2022-12-07T13:52:15;6.70;;;1.37;;
4307;SDS011;2167;53.448;9.984;2022-12-07T13:57:33;0.93;;;0.50;;
4307;SDS011;2167;53.448;9.984;2022-12-07T14:00:01;14.37;;;4.50;;
4307;SDS011;2167;53.448;9.984;2022-12-07T14:02:31;2.20;;;0.80;;
4307;SDS011;2167;53.448;9.984;2022-12-07T14:05:12;4.17;;;0.90;;
4307;SDS011;2167;53.448;9.984;2022-12-07T14:07:58;0.77;;;0.67;;
4307;SDS011;2167;53.448;9.984;2022-12-07T14:10:36;2.97;;;0.53;;
4307;SDS011;2167;53.448;9.984;2022-12-07T14:13:57;0.77;;;0.43;;
4307;SDS011;2167;53.448;9.984;2022-12-07T14:16:21;2.63;;;0.50;;
4307;SDS011;2167;53.448;9.984;2022-12-07T14:18:49;1.37;;;0.70;;
4307;SDS011;2167;53.448;9.984;2022-12-07T14:21:16;0.60;;;0.60;;
4307;SDS011;2167;53.448;9.984;2022-12-07T14:23:44;1.00;;;0.40;;
4307;SDS011;2167;53.448;9.984;2022-12-07T14:26:20;2.37;;;1.00;;
4307;SDS011;2167;53.448;9.984;2022-12-07T14:28:47;0.80;;;0.57;;
4307;SDS011;2167;53.448;9.984;2022-12-07T14:31:13;4.40;;;1.37;;
4307;SDS011;2167;53.448;9.984;2022-12-07T14:33:45;2.47;;;1.15;;
4307;SDS011;2167;53.448;9.984;2022-12-07T14:36:13;6.17;;;1.30;;
4307;SDS011;2167;53.448;9.984;2022-12-07T14:38:40;0.60;;;0.40;;
4307;SDS011;2167;53.448;9.984;2022-12-07T14:41:17;4.67;;;0.87;;
4307;SDS011;2167;53.448;9.984;2022-12-07T14:44:12;5.00;;;0.70;;
4307;SDS011;2167;53.448;9.984;2022-12-07T14:46:37;3.70;;;1.60;;
4307;SDS011;2167;53.448;9.984;2022-12-07T14:49:03;4.50;;;1.00;;
4307;SDS011;2167;53.448;9.984;2022-12-07T14:51:29;0.43;;;0.43;;
4307;SDS011;2167;53.448;9.984;2022-12-07T14:53:54;0.73;;;0.60;;
4307;SDS011;2167;53.448;9.984;2022-12-07T14:56:20;3.50;;;1.40;;
4307;SDS011;2167;53.448;9.984;2022-12-07T14:58:46;2.97;;;0.83;;
4307;SDS011;2167;53.448;9.984;2022-12-07T15:01:13;2.57;;;0.53;;
4307;SDS011;2167;53.448;9.984;2022-12-07T15:03:39;1.77;;;0.90;;
4307;SDS011;2167;53.448;9.984;2022-12-07T15:06:05;1.20;;;1.10;;
4307;SDS011;2167;53.448;9.984;2022-12-07T15:08:31;1.73;;;1.00;;
4307;SDS011;2167;53.448;9.984;2022-12-07T15:10:57;3.77;;;1.03;;
4307;SDS011;2167;53.448;9.984;2022-12-07T15:13:22;4.77;;;0.97;;
4307;SDS011;2167;53.448;9.984;2022-12-07T15:16:11;1.80;;;0.83;;
4307;SDS011;2167;53.448;9.984;2022-12-07T15:18:40;2.37;;;0.80;;
4307;SDS011;2167;53.448;9.984;2022-12-07T15:21:10;0.63;;;0.50;;
4307;SDS011;2167;53.448;9.984;2022-12-07T15:23:38;2.37;;;0.87;;
4307;SDS011;2167;53.448;9.984;2022-12-07T15:26:06;0.80;;;0.80;;
4307;SDS011;2167;53.448;9.984;2022-12-07T15:28:34;1.70;;;1.00;;
4307;SDS011;2167;53.448;9.984;2022-12-07T15:30:59;4.03;;;1.00;;
4307;SDS011;2167;53.448;9.984;2022-12-07T15:33:25;1.17;;;0.60;;
4307;SDS011;2167;53.448;9.984;2022-12-07T15:35:51;2.00;;;0.90;;
4307;SDS011;2167;53.448;9.984;2022-12-07T15:38:16;4.63;;;0.83;;
4307;SDS011;2167;53.448;9.984;2022-12-07T15:40:42;1.80;;;1.07;;
4307;SDS011;2167;53.448;9.984;2022-12-07T15:43:08;2.13;;;1.37;;
4307;SDS011;2167;53.448;9.984;2022-12-07T15:45:54;2.20;;;1.27;;
4307;SDS011;2167;53.448;9.984;2022-12-07T15:48:20;3.20;;;0.93;;
4307;SDS011;2167;53.448;9.984;2022-12-07T15:50:45;2.40;;;0.95;;
4307;SDS011;2167;53.448;9.984;2022-12-07T15:53:11;4.43;;;0.93;;
4307;SDS011;2167;53.448;9.984;2022-12-07T15:55:38;0.70;;;0.70;;
4307;SDS011;2167;53.448;9.984;2022-12-07T15:58:05;7.10;;;1.43;;
4307;SDS011;2167;53.448;9.984;2022-12-07T16:00:30;2.43;;;1.80;;
4307;SDS011;2167;53.448;9.984;2022-12-07T16:02:56;1.50;;;0.80;;
4307;SDS011;2167;53.448;9.984;2022-12-07T16:05:22;4.23;;;0.97;;
4307;SDS011;2167;53.448;9.984;2022-12-07T16:07:47;0.97;;;0.97;;
4307;SDS011;2167;53.448;9.984;2022-12-07T16:10:13;0.83;;;0.83;;
4307;SDS011;2167;53.448;9.984;2022-12-07T16:12:38;4.97;;;1.73;;
4307;SDS011;2167;53.448;9.984;2022-12-07T16:15:04;3.43;;;1.60;;
4307;SDS011;2167;53.448;9.984;2022-12-07T16:17:31;4.90;;;1.60;;
4307;SDS011;2167;53.448;9.984;2022-12-07T16:19:57;2.23;;;1.57;;
4307;SDS011;2167;53.448;9.984;2022-12-07T16:22:23;3.97;;;2.60;;
4307;SDS011;2167;53.448;9.984;2022-12-07T16:24:48;7.90;;;5.67;;
4307;SDS011;2167;53.448;9.984;2022-12-07T16:27:14;7.90;;;4.60;;
4307;SDS011;2167;53.448;9.984;2022-12-07T16:29:39;6.13;;;2.80;;
4307;SDS011;2167;53.448;9.984;2022-12-07T16:32:05;5.10;;;3.30;;
4307;SDS011;2167;53.448;9.984;2022-12-07T16:34:31;5.07;;;3.10;;
4307;SDS011;2167;53.448;9.984;2022-12-07T16:36:57;9.27;;;3.50;;
4307;SDS011;2167;53.448;9.984;2022-12-07T16:39:22;6.20;;;2.37;;
4307;SDS011;2167;53.448;9.984;2022-12-07T16:41:49;2.13;;;1.93;;
4307;SDS011;2167;53.448;9.984;2022-12-07T16:44:14;3.23;;;2.77;;
4307;SDS011;2167;53.448;9.984;2022-12-07T16:46:40;6.00;;;2.10;;
4307;SDS011;2167;53.448;9.984;2022-12-07T16:49:08;1.87;;;1.50;;
4307;SDS011;2167;53.448;9.984;2022-12-07T16:51:36;4.43;;;1.93;;
4307;SDS011;2167;53.448;9.984;2022-12-07T16:54:02;3.23;;;2.30;;
4307;SDS011;2167;53.448;9.984;2022-12-07T16:56:28;3.10;;;1.80;;
4307;SDS011;2167;53.448;9.984;2022-12-07T16:58:54;1.50;;;1.43;;
4307;SDS011;2167;53.448;9.984;2022-12-07T17:01:21;5.10;;;1.33;;
4307;SDS011;2167;53.448;9.984;2022-12-07T17:03:52;2.25;;;2.05;;